createdAt,value
2023-04-14T00:01:18.602Z,150110.09
2023-04-14T00:03:44.964Z,150050.84
2023-04-14T00:06:10.944Z,150039.50
2023-04-14T00:08:36.854Z,150052.09
2023-04-14T00:11:03.005Z,150020.59
2023-04-14T00:13:28.927Z,150047.06
2023-04-14T00:15:55.643Z,150057.13
2023-04-14T00:18:21.495Z,150040.78
2023-04-14T00:20:47.526Z,149996.66
2023-04-14T00:23:13.431Z,150005.50
2023-04-14T00:25:39.554Z,150004.25
2023-04-14T00:28:05.387Z,150024.41
2023-04-14T00:30:31.185Z,150020.59
2023-04-14T00:32:57.080Z,150058.44
2023-04-14T00:35:23.839Z,150076.09
2023-04-14T00:37:51.175Z,150088.66
2023-04-14T00:40:18.009Z,150079.88
2023-04-14T00:42:45.082Z,150102.53
2023-04-14T00:45:11.515Z,150108.84
2023-04-14T00:47:39.071Z,150136.59
2023-04-14T00:50:06.058Z,150101.28
2023-04-14T00:52:31.928Z,150088.66
2023-04-14T00:54:58.831Z,150107.56
2023-04-14T00:57:26.490Z,150126.47
2023-04-14T00:59:53.507Z,150131.56
2023-04-14T01:02:19.754Z,150078.59
2023-04-14T01:04:53.508Z,150076.09
2023-04-14T01:07:22.311Z,150063.47
2023-04-14T01:09:49.338Z,150074.78
2023-04-14T01:12:20.436Z,150073.53
2023-04-14T01:15:36.133Z,150050.84
2023-04-14T01:18:13.034Z,150077.34
2023-04-14T01:20:50.928Z,150088.66
2023-04-14T01:23:31.200Z,150127.75
2023-04-14T01:26:15.481Z,150175.69
2023-04-14T01:29:06.309Z,150245.06
2023-04-14T01:31:40.487Z,150190.81
2023-04-14T01:34:20.583Z,150211.00
2023-04-14T01:36:56.209Z,150199.63
2023-04-14T01:39:24.062Z,150211.00
2023-04-14T01:41:56.047Z,150238.75
2023-04-14T01:44:24.639Z,150267.75
2023-04-14T01:46:55.928Z,150251.34
2023-04-14T01:49:23.030Z,150266.50
2023-04-14T01:51:50.470Z,150236.19
2023-04-14T01:54:18.138Z,150266.50
2023-04-14T01:56:46.157Z,150281.63
2023-04-14T01:59:14.868Z,150262.72
2023-04-14T02:01:43.417Z,150272.81
2023-04-14T02:04:10.860Z,150265.22
2023-04-14T02:06:38.808Z,150258.94
2023-04-14T02:09:09.664Z,150261.44
2023-04-14T02:11:36.860Z,150274.09
2023-04-14T02:14:04.257Z,150276.59
2023-04-14T02:16:31.054Z,150266.50
2023-04-14T02:18:58.809Z,150270.25
2023-04-14T02:21:26.559Z,150262.72
2023-04-14T02:23:52.412Z,150286.72
2023-04-14T02:26:21.793Z,150279.13
2023-04-14T02:29:00.668Z,150277.84
2023-04-14T02:31:29.645Z,150293.06
2023-04-14T02:33:59.852Z,150274.09
2023-04-14T02:36:42.480Z,150287.97
2023-04-14T02:39:21.227Z,150276.59
2023-04-14T02:41:49.895Z,150298.09
2023-04-14T02:44:31.787Z,150285.44
2023-04-14T02:47:03.551Z,150295.56
2023-04-14T02:49:34.021Z,150299.34
2023-04-14T02:52:02.538Z,150291.78
2023-04-14T02:54:29.035Z,150281.63
2023-04-14T02:56:56.699Z,150256.41
2023-04-14T02:59:24.138Z,150242.53
2023-04-14T03:01:50.999Z,150256.41
2023-04-14T03:04:17.581Z,150263.97
2023-04-14T03:06:43.914Z,150224.88
2023-04-14T03:09:10.467Z,150200.88
2023-04-14T03:11:36.763Z,150156.75
2023-04-14T03:14:03.243Z,150179.44
2023-04-14T03:16:31.032Z,150183.28
2023-04-14T03:18:58.403Z,150204.69
2023-04-14T03:21:25.888Z,150181.97
2023-04-14T03:23:52.581Z,150195.84
2023-04-14T03:26:19.922Z,150202.19
2023-04-14T03:28:50.067Z,150117.69
2023-04-14T03:31:19.024Z,150117.69
2023-04-14T03:33:48.379Z,150112.66
2023-04-14T03:36:16.506Z,150050.84
2023-04-14T03:38:45.020Z,150088.66
2023-04-14T03:41:11.645Z,150054.63
2023-04-14T03:43:38.374Z,150052.09
2023-04-14T03:46:05.398Z,150087.41
2023-04-14T03:48:33.841Z,150008.00
2023-04-14T03:51:03.345Z,149997.91
2023-04-14T03:53:31.247Z,149948.75
2023-04-14T03:55:59.177Z,149986.59
2023-04-14T03:58:27.788Z,149975.22
2023-04-14T04:00:57.465Z,149991.63
2023-04-14T04:03:24.408Z,149928.59
2023-04-14T04:05:51.953Z,149924.81
2023-04-14T04:08:19.175Z,149934.91
2023-04-14T04:10:47.524Z,149900.88
2023-04-14T04:13:18.632Z,149876.91
2023-04-14T04:15:48.768Z,149825.31
2023-04-14T04:18:16.254Z,149815.22
2023-04-14T04:20:43.212Z,149844.22
2023-04-14T04:23:10.839Z,149858.03
2023-04-14T04:25:38.923Z,149860.59
2023-04-14T04:28:05.015Z,149847.97
2023-04-14T04:30:32.548Z,149858.03
2023-04-14T04:33:02.651Z,149894.56
2023-04-14T04:35:29.149Z,149882.00
2023-04-14T04:37:56.062Z,149847.97
2023-04-14T04:40:21.880Z,149859.28
2023-04-14T04:42:47.819Z,149861.84
2023-04-14T04:45:30.774Z,149841.66
2023-04-14T04:47:56.751Z,149835.34
2023-04-14T04:50:22.648Z,149779.94
2023-04-14T04:52:48.481Z,149776.19
2023-04-14T04:55:14.808Z,149764.81
2023-04-14T04:57:40.700Z,149783.72
2023-04-14T05:00:08.261Z,149798.84
2023-04-14T05:02:34.073Z,149786.22
2023-04-14T05:04:59.912Z,149835.34
2023-04-14T05:07:25.845Z,149847.97
2023-04-14T05:09:52.540Z,149864.34
2023-04-14T05:12:18.407Z,149880.75
2023-04-14T05:14:44.447Z,149865.63
2023-04-14T05:17:10.341Z,149889.53
2023-04-14T05:19:36.315Z,149947.47
2023-04-14T05:22:02.117Z,149950.06
2023-04-14T05:24:27.953Z,149971.47
2023-04-14T05:27:12.505Z,149991.63
2023-04-14T05:29:39.782Z,150009.28
2023-04-14T05:32:05.713Z,150011.78
2023-04-14T05:34:31.582Z,150002.94
2023-04-14T05:36:57.441Z,150021.88
2023-04-14T05:39:23.845Z,150040.78
2023-04-14T05:41:49.638Z,150063.47
2023-04-14T05:44:15.531Z,150074.78
2023-04-14T05:46:41.462Z,150125.22
2023-04-14T05:49:07.308Z,150100.03
2023-04-14T05:51:33.655Z,150126.47
2023-04-14T05:53:59.768Z,150163.06
2023-04-14T05:56:25.839Z,150176.94
2023-04-14T05:58:53.530Z,150180.72
2023-04-14T06:01:19.415Z,150198.38
2023-04-14T06:03:45.582Z,150245.06
2023-04-14T06:06:11.570Z,150232.41
2023-04-14T06:08:37.427Z,150261.44
2023-04-14T06:11:03.373Z,150294.31
2023-04-14T06:13:31.494Z,150309.47
2023-04-14T06:15:59.899Z,150309.47
2023-04-14T06:18:25.941Z,150348.56
2023-04-14T06:20:51.822Z,150373.78
2023-04-14T06:23:17.634Z,150377.56
2023-04-14T06:25:43.470Z,150370.00
2023-04-14T06:28:09.474Z,150380.06
2023-04-14T06:30:36.229Z,150381.38
2023-04-14T06:33:03.795Z,150406.59
2023-04-14T06:35:33.520Z,150382.63
2023-04-14T06:38:03.134Z,150400.31
2023-04-14T06:40:29.037Z,150416.72
2023-04-14T06:42:55.140Z,150392.69
2023-04-14T06:45:21.054Z,150402.81
2023-04-14T06:47:47.016Z,150385.16
2023-04-14T06:50:12.950Z,150419.22
2023-04-14T06:52:38.778Z,150431.81
2023-04-14T06:55:04.927Z,150457.09
2023-04-14T06:57:30.732Z,150464.63
2023-04-14T06:59:56.612Z,150476.03
2023-04-14T07:02:22.522Z,150479.78
2023-04-14T07:04:48.583Z,150491.19
2023-04-14T07:07:14.647Z,150476.03
2023-04-14T07:09:43.891Z,150491.19
2023-04-14T07:12:13.939Z,150478.53
2023-04-14T07:14:40.516Z,150492.44
2023-04-14T07:17:06.383Z,150472.25
2023-04-14T07:19:32.181Z,150487.34
2023-04-14T07:21:58.077Z,150487.34
2023-04-14T07:24:24.000Z,150503.75
2023-04-14T07:26:49.800Z,150488.66
2023-04-14T07:29:16.056Z,150515.16
2023-04-14T07:31:42.279Z,150535.34
2023-04-14T07:34:08.189Z,150501.25
2023-04-14T07:36:34.158Z,150502.50
2023-04-14T07:39:00.229Z,150553.00
2023-04-14T07:41:27.276Z,150563.13
2023-04-14T07:43:58.373Z,150561.88
2023-04-14T07:46:24.304Z,150578.28
2023-04-14T07:48:50.598Z,150565.66
2023-04-14T07:51:16.654Z,150558.06
2023-04-14T07:53:44.274Z,150583.34
2023-04-14T07:56:11.372Z,150604.78
2023-04-14T07:58:37.631Z,150617.44
2023-04-14T08:01:04.686Z,150651.53
2023-04-14T08:03:30.725Z,150636.38
2023-04-14T08:06:06.887Z,150622.47
2023-04-14T08:08:33.679Z,150642.66
2023-04-14T08:10:59.627Z,150685.59
2023-04-14T08:13:25.412Z,150709.63
2023-04-14T08:15:51.257Z,150718.44
2023-04-14T08:18:17.533Z,150736.13
2023-04-14T08:20:43.631Z,150752.56
2023-04-14T08:23:10.963Z,150776.59
2023-04-14T08:25:37.476Z,150779.13
2023-04-14T08:28:03.505Z,150771.50
2023-04-14T08:30:29.378Z,150785.41
2023-04-14T08:32:56.982Z,150791.72
2023-04-14T08:35:35.233Z,150815.75
2023-04-14T08:38:06.173Z,150903.00
2023-04-14T08:40:37.583Z,150949.75
2023-04-14T08:43:04.248Z,151034.47
2023-04-14T08:45:31.834Z,151090.09
2023-04-14T08:48:02.251Z,151163.47
2023-04-14T08:50:36.340Z,151187.47
2023-04-14T08:53:05.532Z,151206.44
2023-04-14T08:55:38.357Z,151133.09
2023-04-14T08:58:06.787Z,151183.69
2023-04-14T09:00:33.967Z,151191.31
2023-04-14T09:03:00.108Z,151195.09
2023-04-14T09:05:26.404Z,151163.47
2023-04-14T09:07:52.919Z,151154.63
2023-04-14T09:10:21.448Z,151174.84
2023-04-14T09:12:48.150Z,151107.81
2023-04-14T09:15:15.805Z,151141.97
2023-04-14T09:17:42.276Z,151178.63
2023-04-14T09:20:35.747Z,151157.16
2023-04-14T09:22:57.266Z,151152.06
2023-04-14T09:25:23.226Z,151179.91
2023-04-14T09:27:49.163Z,151195.09
2023-04-14T09:30:16.959Z,151263.41
2023-04-14T09:32:46.176Z,151334.28
2023-04-14T09:35:13.501Z,151382.41
2023-04-14T09:37:43.907Z,151411.53
2023-04-14T09:40:11.166Z,151400.13
2023-04-14T09:42:42.137Z,151457.06
2023-04-14T09:45:08.871Z,151495.06
2023-04-14T09:47:35.083Z,151476.06
2023-04-14T09:50:03.016Z,151484.94
2023-04-14T09:52:37.822Z,151428.00
2023-04-14T09:55:14.706Z,151306.41
2023-04-14T09:57:42.080Z,151281.13
2023-04-14T10:00:23.909Z,151305.16
2023-04-14T10:02:55.589Z,151379.88
2023-04-14T10:05:26.337Z,151465.97
2023-04-14T10:07:52.214Z,151612.84
2023-04-14T10:10:18.027Z,151663.53
2023-04-14T10:12:45.020Z,151714.22
2023-04-14T10:15:12.148Z,151725.56
2023-04-14T10:17:38.854Z,151581.16
2023-04-14T10:20:06.265Z,151479.91
2023-04-14T10:22:32.364Z,151403.91
2023-04-14T10:24:59.033Z,151349.44
2023-04-14T10:27:30.637Z,151349.44
2023-04-14T10:29:57.729Z,151335.53
2023-04-14T10:32:25.665Z,151334.28
2023-04-14T10:35:05.884Z,151314.00
2023-04-14T10:37:32.739Z,151339.34
2023-04-14T10:40:01.192Z,151349.44
2023-04-14T10:42:30.249Z,151345.66
2023-04-14T10:45:05.130Z,151320.34
2023-04-14T10:47:31.534Z,151279.88
2023-04-14T10:49:58.157Z,151311.47
2023-04-14T10:52:24.630Z,151338.06
2023-04-14T10:54:56.551Z,151363.41
2023-04-14T10:57:26.546Z,151549.53
2023-04-14T10:59:54.388Z,151823.22
2023-04-14T11:02:27.858Z,151859.97
2023-04-14T11:05:04.717Z,152000.72
2023-04-14T11:07:37.400Z,152218.91
2023-04-14T11:10:18.769Z,152493.09
2023-04-14T11:12:46.539Z,152326.78
2023-04-14T11:15:14.801Z,152146.59
2023-04-14T11:17:45.215Z,151887.84
2023-04-14T11:20:21.724Z,151731.94
2023-04-14T11:22:52.301Z,151704.06
2023-04-14T11:25:23.046Z,151650.84
2023-04-14T11:27:49.833Z,151604.00
2023-04-14T11:30:20.489Z,151653.38
2023-04-14T11:32:56.054Z,151582.44
2023-04-14T11:35:28.266Z,151617.91
2023-04-14T11:37:59.043Z,151748.47
2023-04-14T11:40:26.752Z,152043.81
2023-04-14T11:42:54.936Z,152090.75
2023-04-14T11:45:21.188Z,152098.38
2023-04-14T11:48:01.004Z,152010.81
2023-04-14T11:50:30.418Z,151949.97
2023-04-14T11:52:59.055Z,151990.53
2023-04-14T11:55:29.189Z,152254.44
2023-04-14T11:57:56.444Z,152415.69
2023-04-14T12:00:23.664Z,152554.03
2023-04-14T12:02:50.519Z,152517.22
2023-04-14T12:05:22.887Z,152361.03
2023-04-14T12:07:49.622Z,152085.63
2023-04-14T12:10:15.645Z,151824.50
2023-04-14T12:12:41.856Z,151739.53
2023-04-14T12:15:08.912Z,151714.22
2023-04-14T12:17:36.603Z,151683.78
2023-04-14T12:20:03.532Z,151783.94
2023-04-14T12:22:29.995Z,151880.25
2023-04-14T12:24:56.821Z,152216.38
2023-04-14T12:27:24.500Z,152538.78
2023-04-14T12:29:51.313Z,152747.19
2023-04-14T12:32:17.583Z,153014.16
2023-04-14T12:35:01.618Z,153047.19
2023-04-14T12:37:27.848Z,153061.19
2023-04-14T12:40:00.064Z,153141.34
2023-04-14T12:42:27.673Z,153019.22
2023-04-14T12:45:01.482Z,152803.09
2023-04-14T12:47:29.697Z,152951.78
2023-04-14T12:49:56.386Z,153039.56
2023-04-14T12:52:33.826Z,153072.63
2023-04-14T12:54:59.827Z,153085.38
2023-04-14T12:57:26.506Z,152890.78
2023-04-14T12:59:52.405Z,152726.84
2023-04-14T13:02:18.348Z,152565.47
2023-04-14T13:04:44.426Z,152453.75
2023-04-14T13:07:10.347Z,152262.03
2023-04-14T13:09:36.174Z,152269.63
2023-04-14T13:12:02.050Z,152084.38
2023-04-14T13:14:27.896Z,152135.16
2023-04-14T13:16:54.737Z,152197.31
2023-04-14T13:19:21.892Z,152296.28
2023-04-14T13:21:49.661Z,152377.50
2023-04-14T13:24:15.637Z,152364.84
2023-04-14T13:26:41.516Z,152381.34
2023-04-14T13:29:07.491Z,152288.69
2023-04-14T13:31:35.125Z,152368.63
2023-04-14T13:34:00.974Z,152423.28
2023-04-14T13:36:26.963Z,152404.19
2023-04-14T13:38:53.929Z,152338.16
2023-04-14T13:41:20.008Z,152279.78
2023-04-14T13:43:46.022Z,152347.06
2023-04-14T13:46:12.019Z,152383.88
2023-04-14T13:48:38.121Z,152374.97
2023-04-14T13:51:04.673Z,152321.66
2023-04-14T13:53:30.592Z,152287.38
2023-04-14T13:55:56.400Z,152306.41
2023-04-14T13:58:22.342Z,152270.94
2023-04-14T14:00:48.239Z,152260.75
2023-04-14T14:03:14.312Z,152256.97
2023-04-14T14:05:43.031Z,152185.91
2023-04-14T14:08:09.022Z,152125.00
2023-04-14T14:10:34.887Z,152107.22
2023-04-14T14:13:00.762Z,152135.16
2023-04-14T14:15:26.708Z,152048.84
2023-04-14T14:17:54.467Z,152022.25
2023-04-14T14:20:20.664Z,152003.22
2023-04-14T14:22:46.645Z,151995.59
2023-04-14T14:25:20.275Z,152001.97
2023-04-14T14:27:47.213Z,151943.59
2023-04-14T14:30:13.114Z,151927.13
2023-04-14T14:32:43.045Z,151881.50
2023-04-14T14:35:09.749Z,151848.56
2023-04-14T14:37:35.869Z,151844.75
2023-04-14T14:40:02.095Z,151820.69
2023-04-14T14:42:27.951Z,151790.25
2023-04-14T14:44:53.779Z,151778.84
2023-04-14T14:47:20.012Z,151797.84
2023-04-14T14:49:56.565Z,151790.25
2023-04-14T14:52:22.915Z,151742.06
2023-04-14T14:54:48.740Z,151742.06
2023-04-14T14:57:14.635Z,151734.47
2023-04-14T14:59:42.477Z,151718.00
2023-04-14T15:02:08.680Z,151739.53
2023-04-14T15:04:34.649Z,151738.25
2023-04-14T15:07:00.836Z,151740.78
2023-04-14T15:09:26.778Z,151734.47
2023-04-14T15:11:52.614Z,151734.47
2023-04-14T15:14:18.576Z,151742.06
2023-04-14T15:16:44.502Z,151757.31
2023-04-14T15:19:10.549Z,151733.22
2023-04-14T15:21:36.387Z,151724.31
2023-04-14T15:24:02.471Z,151705.31
2023-04-14T15:26:28.478Z,151704.06
2023-04-14T15:28:54.777Z,151686.31
2023-04-14T15:31:20.879Z,151707.84
2023-04-14T15:33:49.730Z,151702.78
2023-04-14T15:36:15.674Z,151704.06
2023-04-14T15:38:41.559Z,151718.00
2023-04-14T15:41:11.147Z,151673.63
2023-04-14T15:43:36.962Z,151704.06
2023-04-14T15:46:02.854Z,151725.56
2023-04-14T15:48:28.973Z,151740.78
2023-04-14T15:50:54.962Z,151724.31
2023-04-14T15:53:20.798Z,151738.25
2023-04-14T15:55:49.498Z,151711.69
2023-04-14T15:58:15.426Z,151742.06
2023-04-14T16:00:41.242Z,151762.38
2023-04-14T16:03:07.285Z,151818.13
2023-04-14T16:05:35.169Z,151861.25
2023-04-14T16:08:01.375Z,151894.22
2023-04-14T16:10:28.103Z,151966.47
2023-04-14T16:12:53.994Z,152009.56
2023-04-14T16:15:19.824Z,152187.19
2023-04-14T16:17:45.969Z,152281.06
2023-04-14T16:20:12.889Z,152392.75
2023-04-14T16:22:38.965Z,152410.56
2023-04-14T16:25:06.194Z,152411.81
2023-04-14T16:27:33.011Z,152486.72
2023-04-14T16:29:59.327Z,152528.66
2023-04-14T16:32:26.189Z,152505.81
2023-04-14T16:34:52.008Z,152512.16
2023-04-14T16:37:18.889Z,152565.47
2023-04-14T16:39:45.623Z,152493.09
2023-04-14T16:42:11.714Z,152480.38
2023-04-14T16:44:37.755Z,152395.28
2023-04-14T16:47:03.661Z,152374.97
2023-04-14T16:49:29.950Z,152400.38
2023-04-14T16:51:56.861Z,152408.03
2023-04-14T16:54:23.259Z,152359.72
2023-04-14T16:56:49.074Z,152341.97
2023-04-14T16:59:14.887Z,152307.75
2023-04-14T17:01:40.755Z,152258.22
2023-04-14T17:04:09.062Z,152273.47
2023-04-14T17:06:35.555Z,152253.16
2023-04-14T17:09:01.514Z,152201.16
2023-04-14T17:11:27.414Z,152070.41
2023-04-14T17:13:53.344Z,151993.06
2023-04-14T17:16:19.523Z,151922.06
2023-04-14T17:18:47.567Z,151873.94
2023-04-14T17:21:13.396Z,151818.13
2023-04-14T17:23:40.157Z,151744.56
2023-04-14T17:26:06.218Z,151678.72
2023-04-14T17:28:34.111Z,151601.44
2023-04-14T17:30:59.950Z,151598.91
2023-04-14T17:33:26.565Z,151598.91
2023-04-14T17:35:55.600Z,151612.84
2023-04-14T17:38:22.758Z,151609.06
2023-04-14T17:40:49.886Z,151620.44
2023-04-14T17:43:16.004Z,151582.44
2023-04-14T17:45:43.161Z,151549.53
2023-04-14T17:48:09.566Z,151544.44
2023-04-14T17:50:35.428Z,151541.91
2023-04-14T17:53:01.332Z,151544.44
2023-04-14T17:55:27.542Z,151536.88
2023-04-14T17:57:54.561Z,151496.38
2023-04-14T18:00:20.595Z,151500.16
2023-04-14T18:02:46.745Z,151500.16
2023-04-14T18:05:13.256Z,151497.63
2023-04-14T18:07:41.114Z,151455.81
2023-04-14T18:10:07.597Z,151386.19
2023-04-14T18:12:33.829Z,151377.34
2023-04-14T18:14:59.754Z,151320.34
2023-04-14T18:17:25.733Z,151354.56
2023-04-14T18:19:55.590Z,151291.22
2023-04-14T18:22:21.450Z,151241.88
2023-04-14T18:24:48.568Z,151221.63
2023-04-14T18:29:43.342Z,151202.66
2023-04-14T18:32:09.209Z,151168.50
2023-04-14T18:34:35.327Z,151176.13
2023-04-14T18:37:03.151Z,151152.06
2023-04-14T18:39:36.072Z,151126.78
2023-04-14T18:42:02.945Z,151101.50
2023-04-14T18:44:28.914Z,151114.13
2023-04-14T18:46:55.607Z,151091.38
2023-04-14T18:49:22.423Z,151100.25
2023-04-14T18:51:49.109Z,151091.38
2023-04-14T18:54:15.084Z,151071.13
2023-04-14T18:56:41.133Z,151044.56
2023-04-14T18:59:07.005Z,151045.88
2023-04-14T19:01:35.433Z,151005.38
2023-04-14T19:04:02.419Z,151005.38
2023-04-14T19:06:28.472Z,150980.09
2023-04-14T19:08:54.380Z,150976.31
2023-04-14T19:11:20.281Z,150966.19
2023-04-14T19:13:46.470Z,150961.16
2023-04-14T19:16:12.754Z,150957.38
2023-04-14T19:18:39.147Z,150945.97
2023-04-14T19:21:08.657Z,150937.09
2023-04-14T19:23:35.235Z,150944.72
2023-04-14T19:26:01.752Z,150962.41
2023-04-14T19:28:28.609Z,150985.16
2023-04-14T19:30:55.016Z,150958.63
2023-04-14T19:33:20.855Z,150935.84
2023-04-14T19:35:47.966Z,150939.66
2023-04-14T19:38:16.175Z,150956.09
2023-04-14T19:40:48.930Z,150906.78
2023-04-14T19:43:16.017Z,150913.09
2023-04-14T19:45:56.438Z,150930.78
2023-04-14T19:48:24.517Z,150918.13
2023-04-14T19:50:54.569Z,150921.97
2023-04-14T19:53:21.497Z,150887.78
2023-04-14T19:55:51.476Z,150878.91
2023-04-14T19:58:21.454Z,150867.56
2023-04-14T20:00:51.104Z,150866.31
2023-04-14T20:03:17.824Z,150853.66
2023-04-14T20:05:44.058Z,150847.31
2023-04-14T20:08:10.038Z,150858.69
2023-04-14T20:10:36.200Z,150832.19
2023-04-14T20:13:02.299Z,150835.97
2023-04-14T20:15:28.622Z,150801.84
2023-04-14T20:17:55.007Z,150817.00
2023-04-14T20:20:21.280Z,150813.22
2023-04-14T20:22:48.714Z,150839.75
2023-04-14T20:25:14.703Z,150872.63
2023-04-14T20:27:40.525Z,150866.31
2023-04-14T20:30:06.930Z,150852.41
2023-04-14T20:32:33.431Z,150848.63
2023-04-14T20:34:59.924Z,150871.34
2023-04-14T20:37:26.090Z,150859.97
2023-04-14T20:39:53.596Z,150852.41
2023-04-14T20:42:19.478Z,150846.06
2023-04-14T20:44:45.725Z,150852.41
2023-04-14T20:47:12.021Z,150833.44
2023-04-14T20:49:38.600Z,150817.00
2023-04-14T20:52:04.984Z,150815.75
2023-04-14T20:54:31.150Z,150785.41
2023-04-14T20:56:57.270Z,150830.94
2023-04-14T20:59:23.613Z,150798.06
2023-04-14T21:01:50.705Z,150772.75
2023-04-14T21:04:17.136Z,150762.69
2023-04-14T21:06:43.470Z,150757.66
2023-04-14T21:09:09.475Z,150731.09
2023-04-14T21:11:37.353Z,150752.56
2023-04-14T21:15:44.282Z,150775.28
2023-04-14T21:16:50.166Z,150770.25
2023-04-14T21:19:16.594Z,150777.84
2023-04-14T21:21:42.370Z,150803.09
2023-04-14T21:24:08.404Z,150756.34
2023-04-14T21:26:34.243Z,150791.72
2023-04-14T21:29:00.526Z,150806.88
2023-04-14T21:31:26.715Z,150805.63
2023-04-14T21:34:03.882Z,150805.63
2023-04-14T21:36:30.341Z,150804.38
2023-04-14T21:38:56.521Z,150792.97
2023-04-14T21:41:22.453Z,150795.53
2023-04-14T21:43:48.312Z,150806.88
2023-04-14T21:46:14.293Z,150790.47
2023-04-14T21:48:40.454Z,150782.91
2023-04-14T21:51:06.905Z,150800.59
2023-04-14T21:53:32.792Z,150781.63
2023-04-14T21:56:10.365Z,150758.91
2023-04-14T21:58:38.488Z,150774.03
2023-04-14T22:01:04.930Z,150762.69
2023-04-14T22:03:32.514Z,150766.47
2023-04-14T22:06:02.024Z,150756.34
2023-04-14T22:08:27.885Z,150722.28
2023-04-14T22:10:54.325Z,150681.81
2023-04-14T22:13:20.334Z,150664.13
2023-04-14T22:15:46.262Z,150678.03
2023-04-14T22:18:12.289Z,150661.59
2023-04-14T22:20:38.966Z,150651.53
2023-04-14T22:23:05.305Z,150636.38
2023-04-14T22:25:31.256Z,150641.41
2023-04-14T22:27:57.045Z,150638.91
2023-04-14T22:30:22.995Z,150618.69
2023-04-14T22:32:48.962Z,150607.31
2023-04-14T22:35:15.624Z,150621.22
2023-04-14T22:37:41.473Z,150630.03
2023-04-14T22:40:07.787Z,150648.97
2023-04-14T22:42:33.556Z,150597.22
2023-04-14T22:45:00.572Z,150599.75
2023-04-14T22:47:26.426Z,150598.50
2023-04-14T22:49:52.213Z,150618.69
2023-04-14T22:52:18.857Z,150606.06
2023-04-14T22:54:45.142Z,150595.97
2023-04-14T22:57:11.001Z,150608.56
2023-04-14T22:59:37.038Z,150609.81
2023-04-14T23:02:03.646Z,150578.28
2023-04-14T23:04:30.722Z,150587.13
2023-04-14T23:06:56.621Z,150606.06
2023-04-14T23:09:22.419Z,150601.00
2023-04-14T23:11:48.636Z,150580.81
2023-04-14T23:14:14.477Z,150569.44
2023-04-14T23:16:42.525Z,150585.84
2023-04-14T23:19:09.650Z,150573.22
2023-04-14T23:21:35.462Z,150560.63
2023-04-14T23:24:01.284Z,150551.75
2023-04-14T23:26:27.840Z,150575.72
2023-04-14T23:28:53.664Z,150537.84
2023-04-14T23:31:19.592Z,150547.97
2023-04-14T23:33:47.918Z,150553.00
2023-04-14T23:36:13.785Z,150546.72
2023-04-14T23:38:39.640Z,150526.53
2023-04-14T23:41:05.460Z,150585.84
2023-04-14T23:43:31.298Z,150555.53
2023-04-14T23:45:57.264Z,150506.34
2023-04-14T23:48:23.242Z,150516.41
2023-04-14T23:51:03.437Z,150497.47
2023-04-14T23:53:35.379Z,150473.50
2023-04-14T23:56:02.939Z,150503.75
2023-04-14T23:58:30.160Z,150517.66
